Aérodrome :
LOGIN :

S'inscrire | Disclaimer

   EN    FR    IT 

 










Légende :    VFR   VFR Marginal   IFR   IFR Intensif   IFR Très Intensif
Visi : 
Plafond : 
>= 8 km
>= 3000ft
5 à 8 km
1000 à 3000 ft
1500m à 5 km
500 à 1000 ft
800 à 1500m
200 à 500 ft
< 800m
< 200 ft
Symboles :   Orages  Brouillard  Fortes neiges  Fortes précipitations  Vent > 20 kt
SIGMETs :   Divers  Orages  Givrage  Turbulence  Onde Orograph.  Cendres Volcan.







- Altitude de l'aérodrome : 776 ft
- Code IATA : RMS


ETAR - Ramstein Air Base

DERNIER METAR :
  • 210656Z 07005KT 9000 BR CLR M02/M02 A2990 RMK AO2A SLP142 $

METARs EXPIRÉS :
  • 210556Z 06005KT 9999 BKN100 00/M01 A2989 RMK AO2A SLP138 T10041009 10021 21025 52013 $
  • 210456Z 07005KT 9999 FEW008 SCT100 00/M01 A2987 RMK AO2A SLP130 T10041009 $

TAF AMD TAF ETAR
Valide du 21 à 07h jusqu'au 22 à 08h UTC


210715Z 2107/2208 07006KT 6000 BR SCT015 QNH2980INS
BECMG 2109/2110 06009KT 9999 NSW SCT015 BKN020 QNH2992INS
BECMG 2115/2116 07006KT 9999 SCT010 OVC025 QNH2996INS
BECMG 2118/2119 07006KT 9999 OVC015 QNH3000INS
BECMG 2123/2124 07006KT 8000 BR OVC010 QNH3002INS TX04/2112Z TNM03/2107Z
Pas de NOTAMs connus pour ce terrain.



MET'MAP, la Météo Aéronautique d'un coup d'oeil ! - Copyright ORBIFLY Décembre 2007 - Disclaimer

ORBIFLY MET'MAP TEAM :

Programmation & Développement : Alexandra Zaïnal
Conception & Développement : Baudouin d'Aumeries
Co-Programmation & Développement : Marc-Olivier Méhu
Soutien technique & logistique : Manuel Goepfert

Contact : metmap@orbifly.com




SOURCES & CREDITS :

   NOAA